createdAt,value
2023-05-04T00:02:22.975Z,7.68
2023-05-04T00:04:53.183Z,7.60
2023-05-04T00:07:21.625Z,7.95
2023-05-04T00:09:50.689Z,7.97
2023-05-04T00:12:18.942Z,8.02
2023-05-04T00:14:48.145Z,7.68
2023-05-04T00:17:16.340Z,8.27
2023-05-04T00:19:46.069Z,7.45
2023-05-04T00:22:14.061Z,7.93
2023-05-04T00:24:43.363Z,7.97
2023-05-04T00:27:11.731Z,8.50
2023-05-04T00:29:40.168Z,8.02
2023-05-04T00:32:10.618Z,8.10
2023-05-04T00:34:38.878Z,7.60
2023-05-04T00:37:07.536Z,7.35
2023-05-04T00:39:36.173Z,8.73
2023-05-04T00:42:04.312Z,7.72
2023-05-04T00:44:32.171Z,7.75
2023-05-04T00:47:00.426Z,7.55
2023-05-04T00:49:30.058Z,7.97
2023-05-04T00:51:58.534Z,8.23
2023-05-04T00:54:26.843Z,7.45
2023-05-04T00:56:54.789Z,8.35
2023-05-04T00:59:23.032Z,8.30
2023-05-04T01:01:50.961Z,7.65
2023-05-04T01:04:20.121Z,7.85
2023-05-04T01:06:54.327Z,7.93
2023-05-04T01:09:27.605Z,8.15
2023-05-04T01:11:59.588Z,7.20
2023-05-04T01:14:28.588Z,8.05
2023-05-04T01:16:59.069Z,7.85
2023-05-04T01:19:28.200Z,8.38
2023-05-04T01:21:57.620Z,7.78
2023-05-04T01:24:26.811Z,8.18
2023-05-04T01:26:58.871Z,6.93
2023-05-04T01:29:33.522Z,7.90
2023-05-04T01:32:03.934Z,7.40
2023-05-04T01:34:32.429Z,7.97
2023-05-04T01:37:03.376Z,7.95
2023-05-04T01:39:31.322Z,7.25
2023-05-04T01:41:59.617Z,8.50
2023-05-04T01:44:27.479Z,7.20
2023-05-04T01:46:55.664Z,7.47
2023-05-04T01:49:23.448Z,8.05
2023-05-04T01:51:51.409Z,8.00
2023-05-04T01:54:20.817Z,7.93
2023-05-04T01:56:48.651Z,7.88
2023-05-04T01:59:17.091Z,7.70
2023-05-04T02:01:45.094Z,7.70
2023-05-04T02:04:13.087Z,7.93
2023-05-04T02:06:41.696Z,7.10
2023-05-04T02:09:09.874Z,7.22
2023-05-04T02:11:39.190Z,8.70
2023-05-04T02:14:07.098Z,7.28
2023-05-04T02:16:35.672Z,8.20
2023-05-04T02:19:03.630Z,7.55
2023-05-04T02:21:31.612Z,7.95
2023-05-04T02:24:00.371Z,7.57
2023-05-04T02:26:28.370Z,7.57
2023-05-04T02:28:57.754Z,7.38
2023-05-04T02:31:26.097Z,8.23
2023-05-04T02:33:54.679Z,8.27
2023-05-04T02:36:22.658Z,7.60
2023-05-04T02:38:51.378Z,7.65
2023-05-04T02:41:19.504Z,8.38
2023-05-04T02:43:47.534Z,7.60
2023-05-04T02:46:16.919Z,7.40
2023-05-04T02:48:45.054Z,6.75
2023-05-04T02:51:13.010Z,7.75
2023-05-04T02:53:41.087Z,7.78
2023-05-04T02:56:09.203Z,8.18
2023-05-04T02:58:37.227Z,7.30
2023-05-04T03:01:05.413Z,7.80
2023-05-04T03:03:34.633Z,7.90
2023-05-04T03:06:02.587Z,7.95
2023-05-04T03:08:31.086Z,7.90
2023-05-04T03:10:59.408Z,7.82
2023-05-04T03:13:27.266Z,7.93
2023-05-04T03:15:55.376Z,7.38
2023-05-04T03:18:23.394Z,7.75
2023-05-04T03:20:53.249Z,9.02
2023-05-04T03:23:22.820Z,8.30
2023-05-04T03:25:51.100Z,7.93
2023-05-04T03:28:20.013Z,7.75
2023-05-04T03:30:48.615Z,8.18
2023-05-04T03:33:16.862Z,8.73
2023-05-04T03:35:45.187Z,8.55
2023-05-04T03:38:15.264Z,7.78
2023-05-04T03:40:44.801Z,7.70
2023-05-04T03:43:13.971Z,8.30
2023-05-04T03:45:41.994Z,8.25
2023-05-04T03:48:10.069Z,7.30
2023-05-04T03:50:38.310Z,8.23
2023-05-04T03:53:06.957Z,8.05
2023-05-04T03:55:36.532Z,8.10
2023-05-04T03:58:04.837Z,8.52
2023-05-04T04:00:33.753Z,8.52
2023-05-04T04:03:10.174Z,9.07
2023-05-04T04:05:39.292Z,8.35
2023-05-04T04:08:07.761Z,8.68
2023-05-04T04:10:38.180Z,8.65
2023-05-04T04:13:06.231Z,10.23
2023-05-04T04:15:34.335Z,8.15
2023-05-04T04:18:02.477Z,8.65
2023-05-04T04:20:31.016Z,8.48
2023-05-04T04:22:58.960Z,9.43
2023-05-04T04:25:27.012Z,9.18
2023-05-04T04:27:56.740Z,8.52
2023-05-04T04:30:24.630Z,8.77
2023-05-04T04:32:54.001Z,8.88
2023-05-04T04:35:22.729Z,8.95
2023-05-04T04:37:51.198Z,9.27
2023-05-04T04:40:19.456Z,9.23
2023-05-04T04:42:47.524Z,9.07
2023-05-04T04:45:16.769Z,9.00
2023-05-04T04:47:45.427Z,8.77
2023-05-04T04:50:13.479Z,9.38
2023-05-04T04:52:42.197Z,9.15
2023-05-04T04:55:10.809Z,9.35
2023-05-04T04:57:38.912Z,9.15
2023-05-04T05:00:09.924Z,9.10
2023-05-04T05:02:39.549Z,10.00
2023-05-04T05:05:09.446Z,8.52
2023-05-04T05:07:37.580Z,9.40
2023-05-04T05:10:06.909Z,8.68
2023-05-04T05:12:35.257Z,8.90
2023-05-04T05:15:04.601Z,9.52
2023-05-04T05:17:33.072Z,10.63
2023-05-04T05:20:02.698Z,8.70
2023-05-04T05:22:30.758Z,8.88
2023-05-04T05:25:05.037Z,9.45
2023-05-04T05:27:34.387Z,8.70
2023-05-04T05:30:03.783Z,8.98
2023-05-04T05:32:32.625Z,9.38
2023-05-04T05:35:01.981Z,9.52
2023-05-04T05:37:29.965Z,10.18
2023-05-04T05:39:58.340Z,8.93
2023-05-04T05:42:26.406Z,8.30
2023-05-04T05:44:54.617Z,9.30
2023-05-04T05:47:22.730Z,9.57
2023-05-04T05:49:50.954Z,8.98
2023-05-04T05:52:20.516Z,8.32
2023-05-04T05:54:48.868Z,9.05
2023-05-04T05:57:16.888Z,8.43
2023-05-04T05:59:45.098Z,8.60
2023-05-04T06:02:14.877Z,8.60
2023-05-04T06:04:43.489Z,9.20
2023-05-04T06:07:12.846Z,8.73
2023-05-04T06:09:42.448Z,9.10
2023-05-04T06:12:13.542Z,8.82
2023-05-04T06:14:41.885Z,8.23
2023-05-04T06:17:09.917Z,8.10
2023-05-04T06:19:39.333Z,8.25
2023-05-04T06:22:07.732Z,8.23
2023-05-04T06:24:36.235Z,7.57
2023-05-04T06:27:06.057Z,8.20
2023-05-04T06:29:34.247Z,8.38
2023-05-04T06:32:02.679Z,7.25
2023-05-04T06:34:31.180Z,7.90
2023-05-04T06:36:59.304Z,7.40
2023-05-04T06:39:27.465Z,8.20
2023-05-04T06:41:55.409Z,8.10
2023-05-04T06:44:24.896Z,7.68
2023-05-04T06:46:52.874Z,7.45
2023-05-04T06:49:21.077Z,7.93
2023-05-04T06:51:49.166Z,6.90
2023-05-04T06:54:17.302Z,8.02
2023-05-04T06:56:45.358Z,8.07
2023-05-04T06:59:14.052Z,7.07
2023-05-04T07:01:45.605Z,7.03
2023-05-04T07:04:13.871Z,7.25
2023-05-04T07:06:42.031Z,7.00
2023-05-04T07:09:10.607Z,7.03
2023-05-04T07:11:38.476Z,7.00
2023-05-04T07:14:09.823Z,6.40
2023-05-04T07:16:39.297Z,6.32
2023-05-04T07:19:08.883Z,6.78
2023-05-04T07:21:36.902Z,6.88
2023-05-04T07:24:06.479Z,6.75
2023-05-04T07:26:34.691Z,6.60
2023-05-04T07:29:02.589Z,6.07
2023-05-04T07:31:30.929Z,6.25
2023-05-04T07:33:59.642Z,5.95
2023-05-04T07:36:28.906Z,6.57
2023-05-04T07:38:56.992Z,5.97
2023-05-04T07:41:25.009Z,6.07
2023-05-04T07:43:53.193Z,6.35
2023-05-04T07:46:21.135Z,5.53
2023-05-04T07:48:49.737Z,5.75
2023-05-04T07:51:18.630Z,5.63
2023-05-04T07:53:47.869Z,5.20
2023-05-04T07:56:16.072Z,5.47
2023-05-04T07:58:44.200Z,5.70
2023-05-04T08:01:12.480Z,5.40
2023-05-04T08:03:40.351Z,5.45
2023-05-04T08:06:09.523Z,5.43
2023-05-04T08:08:37.797Z,5.00
2023-05-04T08:11:19.274Z,5.35
2023-05-04T08:13:48.486Z,5.20
2023-05-04T08:16:16.698Z,5.38
2023-05-04T08:18:44.834Z,4.40
2023-05-04T08:21:12.997Z,4.43
2023-05-04T08:23:42.388Z,4.30
2023-05-04T08:26:11.737Z,4.10
2023-05-04T08:28:40.711Z,3.92
2023-05-04T08:31:09.091Z,3.83
2023-05-04T08:33:37.329Z,4.00
2023-05-04T08:36:06.056Z,3.70
2023-05-04T08:38:34.816Z,4.10
2023-05-04T08:41:04.362Z,3.88
2023-05-04T08:43:35.819Z,3.78
2023-05-04T08:46:05.102Z,3.45
2023-05-04T08:48:34.569Z,3.63
2023-05-04T08:51:03.623Z,3.10
2023-05-04T08:53:32.734Z,3.40
2023-05-04T08:56:04.658Z,3.22
2023-05-04T08:58:37.992Z,2.95
2023-05-04T09:01:08.589Z,3.03
2023-05-04T09:03:37.002Z,2.85
2023-05-04T09:06:05.186Z,2.65
2023-05-04T09:08:33.283Z,2.40
2023-05-04T09:11:01.536Z,2.50
2023-05-04T09:13:29.542Z,2.85
2023-05-04T09:15:59.769Z,2.90
2023-05-04T09:18:37.969Z,2.55
2023-05-04T09:21:06.022Z,2.40
2023-05-04T09:23:34.625Z,2.78
2023-05-04T09:26:03.200Z,3.20
2023-05-04T09:28:39.654Z,2.78
2023-05-04T09:31:09.329Z,2.67
2023-05-04T09:33:37.965Z,2.80
2023-05-04T09:36:16.032Z,2.58
2023-05-04T09:38:44.558Z,2.97
2023-05-04T09:41:12.700Z,3.10
2023-05-04T09:43:41.878Z,2.92
2023-05-04T09:46:18.962Z,3.25
2023-05-04T09:48:53.661Z,3.50
2023-05-04T09:51:23.609Z,3.10
2023-05-04T09:53:52.817Z,2.97
2023-05-04T09:56:28.423Z,3.40
2023-05-04T09:58:58.834Z,3.55
2023-05-04T10:01:30.262Z,3.38
2023-05-04T10:03:58.640Z,2.97
2023-05-04T10:06:26.653Z,3.45
2023-05-04T10:08:54.937Z,3.50
2023-05-04T10:11:25.854Z,3.50
2023-05-04T10:13:56.121Z,3.70
2023-05-04T10:16:35.074Z,3.50
2023-05-04T10:19:12.951Z,3.10
2023-05-04T10:21:50.124Z,3.58
2023-05-04T10:24:41.938Z,3.30
2023-05-04T10:27:12.288Z,3.20
2023-05-04T10:29:40.544Z,3.08
2023-05-04T10:32:20.510Z,3.50
2023-05-04T10:34:49.500Z,3.75
2023-05-04T10:37:18.476Z,3.55
2023-05-04T10:39:52.921Z,3.20
2023-05-04T10:42:21.380Z,3.95
2023-05-04T10:44:55.492Z,3.70
2023-05-04T10:47:35.792Z,4.03
2023-05-04T10:50:05.798Z,4.10
2023-05-04T10:52:34.175Z,3.90
2023-05-04T10:55:04.187Z,3.80
2023-05-04T10:57:32.225Z,3.92
2023-05-04T11:00:00.309Z,3.22
2023-05-04T11:02:30.971Z,3.60
2023-05-04T11:05:05.784Z,4.28
2023-05-04T11:07:36.072Z,3.77
2023-05-04T11:10:04.877Z,4.03
2023-05-04T11:12:33.553Z,4.28
2023-05-04T11:15:10.080Z,4.68
2023-05-04T11:17:46.215Z,4.68
2023-05-04T11:20:22.780Z,4.90
2023-05-04T11:22:50.934Z,4.97
2023-05-04T11:25:19.297Z,4.60
2023-05-04T11:27:50.419Z,4.97
2023-05-04T11:30:18.609Z,5.57
2023-05-04T11:32:47.436Z,4.93
2023-05-04T11:35:17.268Z,6.05
2023-05-04T11:37:47.451Z,6.28
2023-05-04T11:40:17.461Z,5.93
2023-05-04T11:42:46.654Z,5.80
2023-05-04T11:45:18.127Z,6.15
2023-05-04T11:47:46.785Z,6.03
2023-05-04T11:50:16.807Z,5.57
2023-05-04T11:52:46.568Z,6.00
2023-05-04T11:55:26.595Z,5.82
2023-05-04T11:57:59.071Z,5.60
2023-05-04T12:00:40.680Z,5.22
2023-05-04T12:03:10.122Z,6.10
2023-05-04T12:05:38.514Z,6.18
2023-05-04T12:08:12.378Z,5.45
2023-05-04T12:10:41.423Z,5.57
2023-05-04T12:13:18.421Z,5.18
2023-05-04T12:15:46.678Z,5.88
2023-05-04T12:18:29.378Z,5.32
2023-05-04T12:20:57.690Z,5.15
2023-05-04T12:23:26.918Z,5.03
2023-05-04T12:25:58.466Z,5.20
2023-05-04T12:28:27.863Z,4.47
2023-05-04T12:30:56.030Z,5.28
2023-05-04T12:33:24.141Z,5.72
2023-05-04T12:35:52.290Z,5.20
2023-05-04T12:38:20.211Z,5.70
2023-05-04T12:40:49.826Z,5.65
2023-05-04T12:43:20.977Z,6.75
2023-05-04T12:45:49.021Z,6.18
2023-05-04T12:48:17.247Z,6.10
2023-05-04T12:50:45.716Z,6.50
2023-05-04T12:53:13.732Z,5.75
2023-05-04T12:55:41.755Z,5.93
2023-05-04T12:58:11.472Z,5.63
2023-05-04T13:00:40.438Z,6.15
2023-05-04T13:03:08.708Z,6.18
2023-05-04T13:05:36.845Z,5.78
2023-05-04T13:08:05.016Z,5.93
2023-05-04T13:10:33.103Z,5.85
2023-05-04T13:13:01.224Z,6.30
2023-05-04T13:15:30.570Z,6.47
2023-05-04T13:17:59.039Z,5.20
2023-05-04T13:20:27.756Z,6.47
2023-05-04T13:22:58.217Z,6.88
2023-05-04T13:25:27.186Z,6.00
2023-05-04T13:27:56.647Z,5.50
2023-05-04T13:30:24.922Z,5.80
2023-05-04T13:32:54.345Z,5.45
2023-05-04T13:35:24.195Z,5.60
2023-05-04T13:37:52.617Z,5.40
2023-05-04T13:40:20.571Z,6.32
2023-05-04T13:42:49.164Z,7.00
2023-05-04T13:45:17.986Z,6.90
2023-05-04T13:47:46.579Z,6.53
2023-05-04T13:50:16.778Z,5.97
2023-05-04T13:52:45.332Z,5.55
2023-05-04T13:55:14.380Z,5.88
2023-05-04T13:57:43.022Z,5.22
2023-05-04T14:00:12.451Z,6.43
2023-05-04T14:02:40.495Z,6.95
2023-05-04T14:05:09.263Z,6.50
2023-05-04T14:07:39.043Z,6.60
2023-05-04T14:10:08.235Z,6.78
2023-05-04T14:12:36.117Z,6.30
2023-05-04T14:15:04.789Z,5.80
2023-05-04T14:17:32.844Z,7.57
2023-05-04T14:20:01.160Z,6.28
2023-05-04T14:22:29.416Z,7.70
2023-05-04T14:24:59.038Z,6.95
2023-05-04T14:27:27.846Z,7.32
2023-05-04T14:29:56.116Z,7.88
2023-05-04T14:32:24.606Z,6.43
2023-05-04T14:34:53.060Z,7.82
2023-05-04T14:37:21.053Z,8.07
2023-05-04T14:39:49.267Z,7.68
2023-05-04T14:42:18.936Z,7.90
2023-05-04T14:44:47.113Z,10.25
2023-05-04T14:47:15.444Z,30.92
2023-05-04T14:49:43.499Z,8.23
2023-05-04T14:52:12.305Z,7.70
2023-05-04T14:54:40.332Z,10.32
2023-05-04T14:57:09.277Z,7.72
2023-05-04T14:59:38.952Z,8.20
2023-05-04T15:02:08.306Z,8.07
2023-05-04T15:04:36.482Z,7.47
2023-05-04T15:07:05.580Z,8.50
2023-05-04T15:09:33.779Z,7.90
2023-05-04T15:12:01.880Z,8.60
2023-05-04T15:14:30.200Z,7.85
2023-05-04T15:16:59.506Z,8.05
2023-05-04T15:19:27.598Z,8.60
2023-05-04T15:21:55.776Z,9.43
2023-05-04T15:24:23.818Z,10.32
2023-05-04T15:26:51.797Z,8.48
2023-05-04T15:29:19.665Z,8.70
2023-05-04T15:31:47.792Z,9.82
2023-05-04T15:34:18.596Z,8.82
2023-05-04T15:36:47.270Z,8.25
2023-05-04T15:39:16.171Z,8.38
2023-05-04T15:41:44.380Z,8.82
2023-05-04T15:44:12.459Z,8.95
2023-05-04T15:46:40.670Z,8.48
2023-05-04T15:49:09.353Z,8.70
2023-05-04T15:51:41.693Z,7.75
2023-05-04T15:54:09.971Z,9.07
2023-05-04T15:56:37.985Z,9.25
2023-05-04T15:59:06.721Z,8.65
2023-05-04T16:01:34.943Z,9.48
2023-05-04T16:04:03.155Z,7.93
2023-05-04T16:06:31.328Z,6.78
2023-05-04T16:09:01.328Z,8.13
2023-05-04T16:11:30.527Z,8.52
2023-05-04T16:13:58.856Z,9.10
2023-05-04T16:16:27.296Z,7.97
2023-05-04T16:18:55.541Z,8.55
2023-05-04T16:21:24.202Z,8.98
2023-05-04T16:23:52.611Z,8.52
2023-05-04T16:26:22.251Z,8.80
2023-05-04T16:28:50.341Z,8.32
2023-05-04T16:31:18.670Z,8.75
2023-05-04T16:33:47.757Z,8.15
2023-05-04T16:36:16.074Z,8.60
2023-05-04T16:38:44.188Z,7.45
2023-05-04T16:41:12.359Z,7.70
2023-05-04T16:43:42.176Z,9.00
2023-05-04T16:46:10.310Z,8.77
2023-05-04T16:48:38.827Z,9.43
2023-05-04T16:51:08.222Z,8.63
2023-05-04T16:53:36.182Z,7.85
2023-05-04T16:56:05.013Z,8.60
2023-05-04T16:58:33.085Z,9.23
2023-05-04T17:01:02.746Z,8.30
2023-05-04T17:03:32.965Z,8.55
2023-05-04T17:06:00.921Z,8.65
2023-05-04T17:08:28.991Z,8.07
2023-05-04T17:10:59.760Z,7.75
2023-05-04T17:13:28.017Z,8.57
2023-05-04T17:15:56.343Z,8.23
2023-05-04T17:18:25.765Z,7.78
2023-05-04T17:20:53.990Z,8.38
2023-05-04T17:23:22.162Z,7.68
2023-05-04T17:25:50.537Z,7.93
2023-05-04T17:28:18.588Z,7.40
2023-05-04T17:30:47.183Z,7.18
2023-05-04T17:33:15.317Z,7.38
2023-05-04T17:35:44.906Z,6.78
2023-05-04T17:38:13.146Z,6.95
2023-05-04T17:40:41.265Z,6.82
2023-05-04T17:43:09.401Z,6.35
2023-05-04T17:45:37.285Z,7.05
2023-05-04T17:48:06.427Z,6.80
2023-05-04T17:50:34.552Z,6.82
2023-05-04T17:53:04.300Z,7.05
2023-05-04T17:55:32.545Z,5.80
2023-05-04T17:58:01.363Z,6.32
2023-05-04T18:00:29.379Z,6.03
2023-05-04T18:02:57.874Z,6.68
2023-05-04T18:05:26.308Z,6.68
2023-05-04T18:07:54.564Z,5.30
2023-05-04T18:10:24.300Z,5.43
2023-05-04T18:12:52.774Z,5.60
2023-05-04T18:15:21.293Z,5.82
2023-05-04T18:17:50.921Z,5.85
2023-05-04T18:20:18.955Z,5.55
2023-05-04T18:22:48.047Z,5.15
2023-05-04T18:25:16.593Z,6.03
2023-05-04T18:27:46.230Z,5.35
2023-05-04T18:30:14.632Z,5.50
2023-05-04T18:32:43.349Z,5.25
2023-05-04T18:35:11.895Z,4.60
2023-05-04T18:37:39.909Z,5.03
2023-05-04T18:40:09.995Z,4.18
2023-05-04T18:42:38.138Z,5.53
2023-05-04T18:45:10.476Z,5.03
2023-05-04T18:47:38.509Z,4.47
2023-05-04T18:50:08.034Z,4.88
2023-05-04T18:52:39.704Z,5.15
2023-05-04T18:55:08.583Z,4.60
2023-05-04T18:57:37.037Z,4.70
2023-05-04T19:00:06.745Z,4.80
2023-05-04T19:02:36.931Z,4.75
2023-05-04T19:05:05.305Z,4.28
2023-05-04T19:07:33.544Z,4.97
2023-05-04T19:10:01.717Z,4.55
2023-05-04T19:12:29.965Z,4.25
2023-05-04T19:14:59.439Z,4.35
2023-05-04T19:17:27.775Z,4.35
2023-05-04T19:19:57.315Z,4.15
2023-05-04T19:22:25.984Z,4.03
2023-05-04T19:24:55.614Z,4.75
2023-05-04T19:27:23.894Z,4.20
2023-05-04T19:29:53.870Z,4.20
2023-05-04T19:32:26.145Z,4.65
2023-05-04T19:34:59.703Z,4.28
2023-05-04T19:37:37.134Z,4.40
2023-05-04T19:40:06.969Z,4.95
2023-05-04T19:42:35.141Z,4.63
2023-05-04T19:45:05.466Z,4.03
2023-05-04T19:47:33.897Z,4.68
2023-05-04T19:50:02.118Z,4.43
2023-05-04T19:52:31.678Z,4.00
2023-05-04T19:55:00.185Z,4.30
2023-05-04T19:57:29.226Z,4.95
2023-05-04T19:59:57.760Z,4.32
2023-05-04T20:02:26.078Z,4.80
2023-05-04T20:04:54.430Z,4.30
2023-05-04T20:07:22.664Z,4.07
2023-05-04T20:09:52.140Z,4.45
2023-05-04T20:12:20.593Z,5.10
2023-05-04T20:14:49.077Z,4.47
2023-05-04T20:17:17.029Z,4.80
2023-05-04T20:19:46.166Z,4.85
2023-05-04T20:22:14.492Z,4.70
2023-05-04T20:24:42.525Z,4.45
2023-05-04T20:27:12.592Z,4.80
2023-05-04T20:29:40.543Z,4.22
2023-05-04T20:32:09.227Z,4.22
2023-05-04T20:34:47.743Z,4.78
2023-05-04T20:37:18.086Z,4.60
2023-05-04T20:39:47.790Z,4.22
2023-05-04T20:42:18.737Z,4.30
2023-05-04T20:44:46.986Z,4.03
2023-05-04T20:47:15.189Z,4.55
2023-05-04T20:49:43.383Z,4.60
2023-05-04T20:52:11.310Z,5.18
2023-05-04T20:54:39.385Z,4.70
2023-05-04T20:57:08.014Z,4.63
2023-05-04T20:59:37.499Z,4.40
2023-05-04T21:02:06.076Z,4.70
2023-05-04T21:04:34.229Z,5.30
2023-05-04T21:07:02.289Z,4.50
2023-05-04T21:09:30.572Z,4.35
2023-05-04T21:11:59.162Z,4.30
2023-05-04T21:14:27.045Z,4.22
2023-05-04T21:16:56.483Z,4.13
2023-05-04T21:19:24.700Z,4.57
2023-05-04T21:21:53.210Z,4.72
2023-05-04T21:24:21.991Z,4.75
2023-05-04T21:26:50.644Z,4.10
2023-05-04T21:29:18.761Z,4.32
2023-05-04T21:31:46.966Z,4.43
2023-05-04T21:34:16.591Z,4.43
2023-05-04T21:36:44.721Z,4.53
2023-05-04T21:39:13.235Z,4.55
2023-05-04T21:41:41.307Z,4.45
2023-05-04T21:44:09.276Z,4.35
2023-05-04T21:46:37.371Z,4.03
2023-05-04T21:49:05.421Z,4.15
2023-05-04T21:51:35.345Z,4.32
2023-05-04T21:54:03.575Z,4.53
2023-05-04T21:56:31.833Z,4.50
2023-05-04T21:59:00.092Z,4.00
2023-05-04T22:01:28.826Z,4.75
2023-05-04T22:03:57.272Z,4.25
2023-05-04T22:06:25.940Z,4.63
2023-05-04T22:08:55.173Z,3.95
2023-05-04T22:11:23.986Z,4.40
2023-05-04T22:13:52.113Z,4.18
2023-05-04T22:16:20.671Z,4.35
2023-05-04T22:18:49.665Z,4.75
2023-05-04T22:21:17.684Z,4.60
2023-05-04T22:23:45.863Z,4.97
2023-05-04T22:26:15.441Z,4.35
2023-05-04T22:28:43.588Z,5.03
2023-05-04T22:31:11.574Z,4.82
2023-05-04T22:33:39.860Z,4.38
2023-05-04T22:36:08.291Z,5.15
2023-05-04T22:38:36.893Z,5.00
2023-05-04T22:41:05.084Z,4.60
2023-05-04T22:43:34.658Z,4.88
2023-05-04T22:46:03.223Z,5.05
2023-05-04T22:48:31.124Z,4.18
2023-05-04T22:51:00.412Z,4.47
2023-05-04T22:53:28.298Z,4.90
2023-05-04T22:55:56.334Z,4.28
2023-05-04T22:58:24.765Z,4.50
2023-05-04T23:00:53.975Z,4.70
2023-05-04T23:03:22.073Z,4.85
2023-05-04T23:05:50.160Z,4.57
2023-05-04T23:08:17.949Z,4.57
2023-05-04T23:10:48.951Z,4.75
2023-05-04T23:13:16.961Z,4.43
2023-05-04T23:15:44.994Z,4.72
2023-05-04T23:18:14.425Z,4.60
2023-05-04T23:20:42.598Z,4.82
2023-05-04T23:23:10.847Z,4.93
2023-05-04T23:25:38.848Z,4.75
2023-05-04T23:28:07.112Z,4.72
2023-05-04T23:30:35.213Z,4.47
2023-05-04T23:33:03.176Z,4.95
2023-05-04T23:35:32.930Z,5.20
2023-05-04T23:38:00.855Z,4.45
2023-05-04T23:40:29.125Z,4.65
2023-05-04T23:42:57.683Z,4.90
2023-05-04T23:45:25.668Z,4.50
2023-05-04T23:47:53.696Z,4.70
2023-05-04T23:50:21.808Z,4.38
2023-05-04T23:52:51.439Z,4.72
2023-05-04T23:55:19.605Z,4.53
2023-05-04T23:57:47.514Z,4.93
